Ana Sayfa
METAR-TAF:

METAR-TAF

Havaalanları :

Taunton Municipal Airport (King Field)

Taunton, Massachusetts, Amerika Birleşik Devletleri

Enlem: 41-52-32N, Boylam: 071-01-16W, yükseklik: 13 m

Güncel hava durumu gözlemi

Rapor saat 07:52 UTC de 15 dakika önce yapıldı.
Rüzgar doğu/güneydoğudan 18 kt ve 24 kt'a kadar ani rüzgarlar
Sıcaklık 12°C
Nem 94%
Basınç 1011 hPa
Görüş mesafesi: 6.4 km
1100 ft yükseklikte parçalı bulutlu
1900 ft yükseklikte çok bulutlu
yağmur, Pus

METAR: KTAN 140752Z AUTO 12018G24KT 4SM RA BR SCT011 OVC019 12/11 A2984 RMK AO2 PRESFR SLP103 P0021 T01220106

Saat: 03:07 (08:07 UTC)


TAF: eksik

4.000'den fazla havaalanı için hava durumu gözlemleri ve tahminleri (METAR ve TAF raporları).

Kullanılabilir istasyonlar harita üzerinde sarı ve kırmızı noktalarla gösterilir.

İstasyonun adını görmek için fareyi noktanın üzerinde gezdirin.

Sonrasında hava gözlem ve tahminlerini görmek için tıklayın.

Haritayı değiştirmek için: yaklaştırmak için siyah artı işaretli yeşil düğmeye ve uzaklaştırmak için de eksi işaretli düğmeye hızla tıklayın; bitişik haritalar için yeşil okları kullanın.


METAR-TAF: